Grant, NE

10:27 PM MST on February 27, 2015 (GMT -0700)
North Platte Regional-Bird | Change Station
CLOSE
Current Station
Airport
Location: North Platte,
Elevation: 2776 ft
Nearby Weather Stations

Elev 2776 ft 41.12 °N, 100.67 °W | Updated 15 minutes ago

Partly Cloudy
Partly Cloudy
17 °F
Feels Like 2 °F
N
15
Wind Variable Wind from South
Gusts 22 mph

Today
High -- | Low -- °F
--% Chance of Precip.
Yesterday
High -- | Low -- °F
Precip. -- in
6:24 AM 5:35 PM
Waxing Gibbous, 74% visible
Pressure 30.22 in
Visibility 10.0 miles
Clouds Overcast 2800 ft
Windchill 2 °F
Dew Point 6 °F
Humidity 62%
Rainfall 0.00 in
Snow Depth Not available.
UV 0 out of 12
Pollen .50 out of 12
Air Quality Not available.
Flu Activity Not available.
SPECI KLBF 280512Z AUTO 18013G19KT 10SM OVC028 M08/M14 A3022 RMK AO2 T10831144

More Conditions Fewer Conditions

Pressure 30.22 in
Visibility 10.0 miles
Clouds Overcast 2800 ft
Windchill 2 °F
Dew Point 6 °F
Humidity 62%
Rainfall 0.00 in
Snow Depth Not available.
UV 0 out of 12
Pollen .50 out of 12
Air Quality Not available.
Flu Activity Not available.
SPECI KLBF 280512Z AUTO 18013G19KT 10SM OVC028 M08/M14 A3022 RMK AO2 T10831144

More Conditions Fewer Conditions

10-Day Weather Forecast

Almanac

Astronomy

Feb. 27, 2015 Rise Set
Actual Time
Civil Twilight
Nautical Twilight
Astronomical Twilight
Moon
Length of Visible Light
Length of Day
Tomorrow will be .
, % of the Moon is Illuminated

Today's Extremes

State Highs State Lows

Community

WunderPhotos

Upload Photos

1,800,973 photos uploaded!

WunderBlogs® & News

Nearby

Air Quality

  Air Quality AQ Index Pollutant
Not available.

Snow Depth

Station Depth Elevation

Earthquake Activity

City Distance Mag. Time & Date
Minimum magnitude displayed is 2.5.

Coastal Water Temperatures

Place Temperature

Nearby Weather Stations